Portada
METAR-TAF:

METAR-TAF

Aeropuertos :

Aeropuerto Internacional de Nayaf

Nayaf, Iraq

latitud: 31-59-23N, longitud: 44-24-15E, altitud: 31 m

Observación

El informe se hizo hace 29 minutos, a las 04:00 UTC
Viento 6 kt del norte-noreste
Temperatura 14°C
Humedad 44%
Presión 1015 hPa
Visibilidad: 8000 m
Nubes dispersas a una altura de 4000 ft

METAR: ORNI 090400Z 03006KT 8000 SCT040 14/02 Q1015 NOSIG

Hora: 07:29 (04:29 UTC)

Pronóstico

El informe se hizo hace 6 horas y 29 minutos, a las 22:00 UTC
Pronóstico válido del 09 a las 00 UTC al 09 a las 24 UTC
Viento 8 kt del norte-noroeste
Visibilidad: 8000 m
Evolucionando progresivamente
del 09 a las 03 UTC al 09 a las 05 UTC
Viento 4 kt con dirección variable

TAF: ORNI 082200Z 0900/0924 34008KT 8000 NSC BECMG 0903/0905 VRB04KT

Observaciones y pronósticos meteorológicos de más de 4000 aeropuertos (mensajes METAR y TAF).

Los puntos amarillos y rojos representan las estaciones disponibles.

Ponga el ratón en el punto deseado para ver el nombre de la estación.

Haga clic para ver las observaciones y los pronósticos meteorológicos.

Para cambiar el mapa : haga clic en los botones verdes con una cruz de color negro para hacer un zoom, en el botón verde con un guión para alejar o en las flechas verdes para mapas adyacentes.


METAR-TAF: